OMDB/DXB METAR and TAF weather

Enter ICAO airport designator
Station Type Date Time Source
OMDB METAR 2019/12/07 07:00 UTC NOAA

OMDB 070700Z 12014KT CAVOK 28/14 Q1017 NOSIG


Station Type Date Time Source
OMDB Decoded METAR 2019/12/07 07:00 UTC NOAA

Dubai International Airport, United Arab Emirates (OMDB) 25-15N 055-20E 5M
Dec 07, 2019 - 02:00 AM EST / 2019.12.07 0700 UTC
Wind: from the ESE (120 degrees) at 16 MPH (14 KT):0
Visibility: greater than 7 mile(s):0
Temperature: 82 F (28 C)
Dew Point: 57 F (14 C)
Relative Humidity: 42%
Pressure (altimeter): 30.03 in. Hg (1017 hPa)
ob: OMDB 070700Z 12014KT CAVOK 28/14 Q1017 NOSIG
cycle: 7

Station Type Date Time Source
OMDB TAF 2019/12/07 06:09 UTC NOAA

TAF OMDB 070507Z 0706/0812 10010KT 9999 FEW045 PROB40 0710/0714 36013KT PROB30
TEMPO 0712/0716 VRB15G25KT PROB30
TEMPO 0803/0812 VRB15G30KT 4000 SHRA FEW040TCU
BECMG 0808/0810 35012KT

Example: see airport list